Tuesday, January 23, 2018, 7:21 AM EST
Back to Local

K12N, Aeroflex-andover Airport

Location: Newton, NJ, United States Lat: 41.017
Local Time: 7:21 AM EST (12:21 GMT) Lon: -74.733
Time Zone: US/Eastern Elev: 583 ft

Show me the last for .
Show Decoded

2018-01-23 05:54 METAR K12N 231054Z AUTO 00000KT 06/06 A2977 RMK AO1 SLP088 P0005 T00560056 =
2018-01-23 04:54 METAR K12N 230954Z AUTO 00000KT 04/04 A2983 RMK AO1 SLP107 T00440044 =
2018-01-23 03:54 METAR K12N 230854Z AUTO 00000KT 05/05 A2988 RMK AO1 SLP123 T00500050 58027 =
2018-01-23 02:54 METAR K12N 230754Z AUTO VRB03KT 04/04 A2991 RMK AO1 SLP132 T00440039 =
2018-01-23 01:54 METAR K12N 230654Z AUTO VRB03KT 04/03 A2994 RMK AO1 SLP143 T00390033 =
2018-01-23 00:54 METAR K12N 230554Z AUTO VRB03KT 04/04 A2996 RMK AO1 SLP151 T00390039 10044 20022
                 58026 =
2018-01-22 23:54 METAR K12N 230454Z AUTO 00000KT 03/03 A3001 RMK AO1 SLP167 T00330028 400940011 =
2018-01-22 22:54 METAR K12N 230354Z AUTO 00000KT 03/03 A3005 RMK AO1 SLP181 T00330033 =
2018-01-22 21:54 METAR K12N 230254Z AUTO 00000KT 04/04 A3004 RMK AO1 SLP179 T00440039 58021 =
2018-01-22 20:54 METAR K12N 230154Z AUTO 00000KT 04/04 A3006 RMK AO1 SLP188 T00440039 =
2018-01-22 19:54 METAR K12N 230054Z AUTO 00000KT 03/03 A3009 RMK AO1 SLP199 T00330028 =
2018-01-22 18:54 METAR K12N 222354Z AUTO 00000KT 04/03 A3010 RMK AO1 SLP201 T00440033 10094 20033
                 50002 =
2018-01-22 17:54 METAR K12N 222254Z AUTO VRB03KT 04/03 A3010 RMK AO1 SLP203 T00390028 =
2018-01-22 16:54 METAR K12N 222154Z AUTO VRB03KT 04/03 A3011 RMK AO1 SLP203 T00440033 =
2018-01-22 15:54 METAR K12N 222054Z AUTO 03004KT 07/04 A3010 RMK AO1 SLP199 T00670039 55007 =
2018-01-22 14:54 METAR K12N 221954Z AUTO 00000KT 09/04 A3009 RMK AO1 SLP194 T00890039 =
2018-01-22 13:54 METAR K12N 221854Z AUTO 00000KT 09/04 A3010 RMK AO1 SLP200 T00940044 =
2018-01-22 12:54 METAR K12N 221754Z AUTO VRB03KT 08/04 A3012 RMK AO1 SLP205 T00780044 10078 20011
                 58020 =
2018-01-22 11:54 METAR K12N 221654Z AUTO 00000KT 07/04 A3015 RMK AO1 SLP216 T00670044 =
2018-01-22 10:54 METAR K12N 221554Z AUTO 00000KT 05/04 A3017 RMK AO1 SLP223 T00500039 =
2018-01-22 09:54 METAR K12N 221454Z AUTO 03004KT 03/03 A3018 RMK AO1 SLP228 T00280028 51014 
2018-01-22 08:54 METAR K12N 221354Z AUTO 00000KT 03/03 A3017 RMK AO1 SLP224 T00280028 =
2018-01-22 07:54 METAR K12N 221254Z AUTO VRB03KT 02/02 A3016 RMK AO1 SLP221 T00170017 =

Support USWX by starting your Amazon purchase here.